Time;durP1;ratioP1;P1;durP2;ratioP2;P2;SDS_P1;SDS_P2;PMS_P1;PMS_P2;Temp;Humidity;BMP_temperature;BMP_pressure;BME280_temperature;BME280_humidity;BME280_pressure;Samples;Min_cycle;Max_cycle;Signal;HPM_P1;HPM_P2
2022/09/02 00:00:59;;;;;;;6.60;2.30;;;;;;;8.13;76.43;99293.31;104747;1273;76997;-24
2022/09/02 00:03:31;;;;;;;7.50;2.70;;;;;;;8.13;75.99;99293.47;104710;1272;75198;-24
2022/09/02 00:05:58;;;;;;;4.60;2.40;;;;;;;7.94;76.50;99293.17;104716;1274;61890;-23
2022/09/02 00:08:25;;;;;;;7.40;2.90;;;;;;;7.67;77.27;99294.23;104680;1274;63396;-23
2022/09/02 00:10:53;;;;;;;4.90;2.80;;;;;;;7.39;78.50;99298.13;104858;1274;76757;-23
2022/09/02 00:13:20;;;;;;;5.70;2.30;;;;;;;7.19;79.56;99298.02;104968;1274;75932;-24
2022/09/02 00:15:47;;;;;;;3.40;2.10;;;;;;;7.58;79.83;99294.98;104684;1274;74905;-25
2022/09/02 00:18:15;;;;;;;7.80;2.90;;;;;;;8.16;78.35;99300.56;104740;1274;63529;-25
2022/09/02 00:20:45;;;;;;;7.10;3.80;;;;;;;8.25;76.84;99298.74;104689;1274;61553;-25
2022/09/02 00:23:12;;;;;;;5.80;2.60;;;;;;;7.92;76.88;99300.54;104712;1274;76998;-24
2022/09/02 00:25:39;;;;;;;5.40;2.90;;;;;;;7.63;77.36;99302.15;104772;1274;77313;-24
2022/09/02 00:28:06;;;;;;;5.10;3.10;;;;;;;7.42;77.77;99306.79;104569;1274;75247;-24
2022/09/02 00:30:34;;;;;;;5.90;2.60;;;;;;;7.23;78.98;99309.35;104672;1274;62965;-24
2022/09/02 00:33:01;;;;;;;4.00;2.10;;;;;;;7.56;79.05;99308.61;104741;1274;62789;-24
2022/09/02 00:35:29;;;;;;;5.50;2.80;;;;;;;8.05;77.50;99309.94;104578;1272;75587;-24
2022/09/02 00:37:56;;;;;;;7.30;3.10;;;;;;;8.07;76.31;99310.64;104686;1274;75932;-24
2022/09/02 00:40:23;;;;;;;10.10;3.80;;;;;;;7.81;76.10;99314.59;104561;1274;75212;-24
2022/09/02 00:42:51;;;;;;;5.90;3.40;;;;;;;7.16;81.25;99321.52;104732;1274;61810;-24
2022/09/02 00:45:19;;;;;;;7.10;3.00;;;;;;;7.24;80.93;99321.50;104672;1274;61789;-24
2022/09/02 00:47:49;;;;;;;4.80;2.60;;;;;;;7.20;80.14;99319.01;104748;1274;75467;-24
2022/09/02 00:50:19;;;;;;;5.20;2.50;;;;;;;7.67;79.83;99319.13;105072;1272;77020;-23
2022/09/02 00:52:52;;;;;;;8.10;3.60;;;;;;;8.28;78.50;99315.85;104763;1274;74347;-24
2022/09/02 00:55:24;;;;;;;6.80;3.80;;;;;;;8.42;77.30;99321.79;104737;1274;62190;-24
2022/09/02 00:57:55;;;;;;;6.70;3.50;;;;;;;8.32;76.97;99325.48;104673;1274;62790;-23
2022/09/02 01:00:25;;;;;;;6.40;3.10;;;;;;;8.07;77.54;99322.23;104459;1274;76572;-23
2022/09/02 01:03:00;;;;;;;8.00;3.60;;;;;;;7.76;78.61;99324.09;104509;1274;75766;-24
2022/09/02 01:05:29;;;;;;;7.30;3.20;;;;;;;7.58;78.88;99320.95;104651;1274;75398;-24
2022/09/02 01:07:57;;;;;;;7.80;3.30;;;;;;;7.99;78.71;99321.22;104675;1272;62227;-23
2022/09/02 01:10:32;;;;;;;5.70;3.10;;;;;;;8.53;77.28;99322.16;104767;1274;61919;-23
2022/09/02 01:13:03;;;;;;;8.00;3.60;;;;;;;8.54;76.36;99324.17;104616;1271;76391;-23
2022/09/02 01:15:31;;;;;;;9.70;3.50;;;;;;;8.29;76.49;99326.51;104745;1274;75983;-23
2022/09/02 01:17:59;;;;;;;6.20;3.30;;;;;;;8.03;77.11;99327.02;104764;1274;75767;-24
2022/09/02 01:20:26;;;;;;;8.00;4.00;;;;;;;7.74;78.02;99328.73;104684;1273;63114;-23
2022/09/02 01:22:53;;;;;;;8.50;3.50;;;;;;;7.53;78.13;99327.11;104633;1274;62763;-23
2022/09/02 01:25:23;;;;;;;4.70;2.80;;;;;;;7.35;79.25;99324.48;104537;1276;74572;-23
2022/09/02 01:27:50;;;;;;;5.60;2.80;;;;;;;7.75;78.96;99323.28;104595;1272;76913;-23
2022/09/02 01:30:23;;;;;;;7.70;3.60;;;;;;;8.32;77.10;99329.41;104697;1274;73330;-23
2022/09/02 01:32:51;;;;;;;8.50;3.30;;;;;;;8.37;76.21;99329.42;104658;1271;62856;-24
2022/09/02 01:35:18;;;;;;;5.60;2.90;;;;;;;8.19;76.13;99330.95;104618;1274;63473;-23
2022/09/02 01:37:45;;;;;;;9.70;3.80;;;;;;;7.95;76.82;99331.67;104693;1274;76882;-23
2022/09/02 01:40:21;;;;;;;6.80;3.50;;;;;;;7.71;76.64;99332.05;104789;1272;75362;-24
2022/09/02 01:42:48;;;;;;;7.30;3.60;;;;;;;7.45;77.13;99335.21;104692;1271;75431;-24
2022/09/02 01:45:16;;;;;;;5.10;2.30;;;;;;;7.26;77.93;99339.73;104503;1274;64818;-23
2022/09/02 01:47:43;;;;;;;5.00;2.20;;;;;;;7.61;77.57;99336.47;104847;1273;62870;-23
2022/09/02 01:50:10;;;;;;;6.30;3.20;;;;;;;8.07;75.92;99333.70;104559;1274;76573;-24
2022/09/02 01:52:37;;;;;;;5.30;3.30;;;;;;;8.04;75.68;99338.33;104658;1274;76712;-23
2022/09/02 01:55:05;;;;;;;4.30;2.40;;;;;;;7.82;75.51;99342.19;104648;1273;73532;-25
2022/09/02 01:57:33;;;;;;;4.40;2.60;;;;;;;7.46;75.45;99347.23;104807;1273;63354;-25
2022/09/02 02:00:00;;;;;;;6.10;3.00;;;;;;;7.17;76.01;99350.84;104736;1274;63314;-25
2022/09/02 02:02:38;;;;;;;4.00;2.60;;;;;;;6.88;77.02;99353.60;104620;1274;76994;-25
2022/09/02 02:05:09;;;;;;;5.20;2.40;;;;;;;6.64;79.09;99356.11;104717;1274;77509;-24
2022/09/02 02:07:37;;;;;;;4.20;2.30;;;;;;;7.07;79.32;99356.29;105007;1273;75714;-24
2022/09/02 02:10:06;;;;;;;6.60;2.90;;;;;;;7.64;77.71;99353.00;104998;1274;61213;-24
2022/09/02 02:12:34;;;;;;;8.70;3.00;;;;;;;7.64;75.63;99351.98;104627;1276;62811;-24
2022/09/02 02:15:04;;;;;;;6.20;3.00;;;;;;;7.36;76.36;99354.65;104725;1273;76439;-24
2022/09/02 02:17:32;;;;;;;9.20;3.00;;;;;;;7.05;77.33;99358.78;104651;1274;74875;-24
2022/09/02 02:19:59;;;;;;;4.90;3.00;;;;;;;6.72;77.34;99359.59;104558;1274;75422;-24
2022/09/02 02:22:27;;;;;;;5.50;3.70;;;;;;;6.43;78.00;99359.04;104607;1273;63431;-24
2022/09/02 02:24:54;;;;;;;7.00;2.50;;;;;;;6.22;78.94;99360.08;104673;1273;63267;-24
2022/09/02 02:27:21;;;;;;;6.70;2.90;;;;;;;6.60;78.73;99359.45;104823;1273;74384;-24
2022/09/02 02:29:48;;;;;;;7.90;3.00;;;;;;;7.10;76.58;99359.02;104954;1273;76953;-24
2022/09/02 02:32:17;;;;;;;6.50;3.30;;;;;;;7.12;75.73;99354.23;104643;1273;74307;-24
2022/09/02 02:34:45;;;;;;;6.00;2.70;;;;;;;6.93;75.78;99354.84;104630;1273;63577;-24
2022/09/02 02:37:12;;;;;;;6.10;2.90;;;;;;;6.66;76.58;99352.52;104665;1273;61069;-24
2022/09/02 02:39:40;;;;;;;6.40;3.40;;;;;;;6.39;77.51;99355.52;104668;1274;75564;-24
2022/09/02 02:42:07;;;;;;;4.80;2.80;;;;;;;6.12;78.33;99354.12;104543;1273;75062;-24
2022/09/02 02:44:34;;;;;;;4.90;2.60;;;;;;;5.95;79.01;99352.83;104578;1274;74366;-24
2022/09/02 02:47:01;;;;;;;11.90;2.50;;;;;;;6.38;79.40;99352.78;104674;1274;61985;-24
2022/09/02 02:49:29;;;;;;;6.10;2.80;;;;;;;6.96;78.87;99354.14;104640;1273;62033;-24
2022/09/02 02:51:56;;;;;;;7.00;3.10;;;;;;;7.07;77.95;99354.52;104611;1273;75213;-24
2022/09/02 02:54:23;;;;;;;8.00;2.40;;;;;;;6.92;77.76;99353.73;104594;1274;77087;-24
2022/09/02 02:57:03;;;;;;;5.30;3.30;;;;;;;6.62;78.46;99356.55;104619;1273;74456;-24
2022/09/02 02:59:30;;;;;;;5.60;2.90;;;;;;;6.41;77.83;99359.37;104647;1274;62031;-24
2022/09/02 03:01:57;;;;;;;5.80;2.90;;;;;;;6.19;77.68;99363.56;104480;1274;61895;-24
2022/09/02 03:04:25;;;;;;;3.90;1.70;;;;;;;6.00;78.18;99363.26;104752;1273;76657;-23
2022/09/02 03:06:52;;;;;;;4.50;2.80;;;;;;;6.44;78.52;99365.70;104690;1273;76808;-23
2022/09/02 03:09:20;;;;;;;6.00;2.80;;;;;;;7.02;77.90;99366.74;104648;1273;75496;-23
2022/09/02 03:11:47;;;;;;;7.70;3.40;;;;;;;7.12;77.11;99368.36;104651;1273;61869;-23
2022/09/02 03:14:15;;;;;;;4.20;2.50;;;;;;;6.96;77.27;99371.98;104633;1273;62833;-26
2022/09/02 03:16:42;;;;;;;4.10;2.80;;;;;;;6.70;77.47;99375.73;104946;1272;76755;-24
2022/09/02 03:19:12;;;;;;;4.90;2.80;;;;;;;6.42;78.26;99378.11;104709;1273;75775;-25
2022/09/02 03:21:40;;;;;;;5.10;2.60;;;;;;;6.19;79.19;99381.15;104578;1273;75478;-24
2022/09/02 03:24:09;;;;;;;5.80;2.50;;;;;;;6.05;79.52;99384.02;104520;1273;64722;-25
2022/09/02 03:26:37;;;;;;;5.70;2.50;;;;;;;6.50;78.97;99384.88;104671;1274;62010;-25
2022/09/02 03:29:04;;;;;;;6.40;2.70;;;;;;;7.09;77.46;99384.64;104695;1274;76384;-25
2022/09/02 03:31:32;;;;;;;6.20;2.60;;;;;;;7.17;76.89;99389.66;104745;1273;76105;-25
2022/09/02 03:33:59;;;;;;;4.60;2.80;;;;;;;7.02;77.11;99397.14;104679;1273;73255;-24
2022/09/02 03:36:29;;;;;;;5.70;2.60;;;;;;;6.77;76.47;99401.56;104612;1273;61133;-25
2022/09/02 03:38:57;;;;;;;4.80;2.80;;;;;;;6.59;77.66;99403.16;104371;1273;62073;-24
2022/09/02 03:41:26;;;;;;;5.10;2.70;;;;;;;6.50;78.01;99400.73;104838;1274;76574;-26
2022/09/02 03:43:53;;;;;;;5.10;2.10;;;;;;;6.50;77.38;99404.52;104610;1274;77037;-24
2022/09/02 03:46:20;;;;;;;4.00;1.90;;;;;;;7.10;76.41;99403.02;104585;1273;74602;-24
2022/09/02 03:48:50;;;;;;;7.00;3.00;;;;;;;7.81;75.03;99403.45;104663;1273;63380;-24
2022/09/02 03:51:21;;;;;;;5.60;2.90;;;;;;;8.02;74.29;99400.88;104711;1273;62800;-24
2022/09/02 03:53:49;;;;;;;6.60;3.20;;;;;;;7.98;73.70;99406.33;104528;1274;76319;-24
2022/09/02 03:56:16;;;;;;;6.00;2.90;;;;;;;7.81;72.78;99410.23;104610;1274;76969;-24
2022/09/02 03:58:45;;;;;;;5.50;2.70;;;;;;;7.64;72.84;99414.06;104652;1274;75555;-23
2022/09/02 04:01:20;;;;;;;21.30;3.00;;;;;;;7.54;72.58;99417.23;104445;1273;63175;-23
2022/09/02 04:03:47;;;;;;;4.80;2.40;;;;;;;7.46;72.89;99418.82;104400;1273;62961;-23
2022/09/02 04:06:17;;;;;;;3.10;2.00;;;;;;;7.41;73.49;99422.02;104708;1273;77001;-23
2022/09/02 04:08:45;;;;;;;5.40;2.10;;;;;;;8.00;73.67;99420.37;104683;1273;76990;-24
2022/09/02 04:11:16;;;;;;;6.90;2.50;;;;;;;8.70;72.09;99425.19;104669;1273;75467;-24
2022/09/02 04:13:45;;;;;;;7.30;2.60;;;;;;;8.97;71.10;99419.77;104485;1274;61862;-24
2022/09/02 04:16:17;;;;;;;5.30;2.70;;;;;;;9.13;70.61;99423.82;104466;1274;61628;-24
2022/09/02 04:18:44;;;;;;;5.50;3.20;;;;;;;9.27;70.76;99427.16;104669;1273;76500;-24
2022/09/02 04:21:12;;;;;;;4.60;2.80;;;;;;;9.51;71.20;99427.45;104656;1273;76945;-24
2022/09/02 04:23:40;;;;;;;8.10;3.30;;;;;;;9.74;70.48;99428.21;104858;1273;75707;-23
2022/09/02 04:26:12;;;;;;;5.90;2.90;;;;;;;9.90;70.05;99427.11;104849;1274;62220;-24
2022/09/02 04:28:40;;;;;;;8.00;3.30;;;;;;;9.97;69.74;99428.84;104589;1273;62027;-23
2022/09/02 04:31:08;;;;;;;12.40;2.50;;;;;;;9.99;69.76;99430.27;104597;1274;74246;-23
2022/09/02 04:33:36;;;;;;;5.00;2.40;;;;;;;10.59;69.60;99429.34;104665;1273;77045;-23
2022/09/02 04:36:09;;;;;;;9.20;3.00;;;;;;;11.34;67.82;99430.77;104474;1273;74021;-23
2022/09/02 04:38:41;;;;;;;3.60;2.30;;;;;;;11.55;66.57;99427.88;104626;1273;63236;-23
2022/09/02 04:41:11;;;;;;;5.20;3.20;;;;;;;11.51;66.80;99427.72;104668;1273;62721;-24
2022/09/02 04:43:39;;;;;;;6.30;3.00;;;;;;;11.42;67.31;99433.80;104414;1274;74460;-24
2022/09/02 04:46:09;;;;;;;9.40;3.40;;;;;;;11.44;67.09;99434.83;104695;1272;76961;-24
2022/09/02 04:48:37;;;;;;;5.40;3.10;;;;;;;11.46;67.47;99437.45;104432;1273;74376;-24
2022/09/02 04:51:06;;;;;;;4.30;3.00;;;;;;;11.51;67.91;99440.88;104607;1273;63045;-24
2022/09/02 04:53:34;;;;;;;9.80;3.40;;;;;;;11.66;67.88;99443.03;104653;1273;61818;-24
2022/09/02 04:56:03;;;;;;;4.90;3.00;;;;;;;11.85;67.26;99442.05;104595;1273;76892;-23
2022/09/02 04:58:31;;;;;;;13.00;3.40;;;;;;;12.06;67.04;99442.86;104641;1273;76079;-23
2022/09/02 05:01:05;;;;;;;12.50;3.50;;;;;;;12.29;66.93;99440.81;104608;1273;75431;-23
2022/09/02 05:03:35;;;;;;;22.70;8.80;;;;;;;12.52;66.16;99441.70;104394;1273;63065;-23
2022/09/02 05:06:05;;;;;;;19.70;5.40;;;;;;;12.68;65.64;99440.87;104690;1273;62739;-22
2022/09/02 05:08:35;;;;;;;10.70;4.60;;;;;;;12.85;65.55;99442.77;104414;1273;76678;-22
2022/09/02 05:11:05;;;;;;;9.10;4.60;;;;;;;12.88;65.86;99441.99;104604;1273;76893;-23
2022/09/02 05:13:32;;;;;;;10.10;4.40;;;;;;;12.89;66.44;99440.48;104488;1273;74252;-23
2022/09/02 05:16:00;;;;;;;7.50;4.30;;;;;;;12.88;65.09;99440.46;104691;1273;63164;-23
2022/09/02 05:18:27;;;;;;;7.90;4.30;;;;;;;12.87;64.21;99442.93;104626;1273;61976;-22
2022/09/02 05:20:54;;;;;;;5.90;3.70;;;;;;;12.89;65.29;99442.06;104647;1273;76745;-23
2022/09/02 05:23:22;;;;;;;11.70;4.30;;;;;;;12.96;64.81;99444.00;104707;1274;76823;-25
2022/09/02 05:25:49;;;;;;;7.40;4.50;;;;;;;13.09;65.19;99447.70;104956;1273;74546;-25
2022/09/02 05:28:16;;;;;;;9.70;4.70;;;;;;;13.22;65.35;99448.73;105058;1273;63140;-24
2022/09/02 05:30:45;;;;;;;10.50;5.40;;;;;;;13.36;65.16;99454.52;104689;1273;63410;-23
2022/09/02 05:33:14;;;;;;;21.80;4.40;;;;;;;13.51;65.31;99454.11;104656;1273;76828;-24
2022/09/02 05:35:43;;;;;;;11.40;4.30;;;;;;;13.58;64.68;99454.36;105009;1273;77060;-23
2022/09/02 05:38:13;;;;;;;9.70;4.40;;;;;;;13.71;64.68;99455.86;104664;1273;75364;-25
2022/09/02 05:40:41;;;;;;;11.30;3.60;;;;;;;13.80;64.23;99458.33;104925;1274;63300;-24
2022/09/02 05:43:08;;;;;;;8.90;4.50;;;;;;;13.89;63.94;99462.01;105066;1273;62025;-25
2022/09/02 05:45:37;;;;;;;18.80;6.30;;;;;;;13.82;64.42;99462.23;104961;1273;75566;-25
2022/09/02 05:49:04;;;;;;;14.20;6.70;;;;;;;13.74;63.92;99463.77;104543;1273;77364;-25
2022/09/02 05:50:52;;;;;;;15.10;6.00;;;;;;;13.39;63.39;99462.96;104727;1273;75782;-24
2022/09/02 05:53:25;;;;;;;10.30;4.90;;;;;;;13.41;64.41;99460.71;104844;1273;61909;-24
2022/09/02 05:55:53;;;;;;;7.40;3.90;;;;;;;13.46;64.48;99462.16;104749;1273;62240;-24
2022/09/02 05:58:21;;;;;;;23.00;12.60;;;;;;;12.91;65.30;99465.81;104698;1273;75652;-23
2022/09/02 06:00:50;;;;;;;7.30;3.80;;;;;;;13.14;66.11;99464.90;104648;1273;77063;-25
2022/09/02 06:03:19;;;;;;;7.60;4.40;;;;;;;13.10;65.58;99465.44;104631;1273;75414;-23
2022/09/02 06:05:57;;;;;;;17.70;4.60;;;;;;;13.35;66.00;99468.52;104617;1273;61220;-24
2022/09/02 06:08:31;;;;;;;10.30;5.90;;;;;;;13.51;64.47;99471.69;104844;1273;63318;-21
2022/09/02 06:11:02;;;;;;;12.30;6.00;;;;;;;13.66;64.69;99475.64;104778;1273;76409;-26
2022/09/02 06:13:31;;;;;;;13.60;4.40;;;;;;;13.72;64.11;99473.35;104722;1273;77550;-25
2022/09/02 06:15:58;;;;;;;15.20;5.90;;;;;;;13.80;64.11;99476.98;104681;1273;75896;-26
2022/09/02 06:18:28;;;;;;;12.30;5.10;;;;;;;13.74;63.89;99479.96;104668;1274;61135;-25
2022/09/02 06:20:56;;;;;;;12.50;5.50;;;;;;;13.80;64.34;99479.33;104877;1272;61515;-24
2022/09/02 06:23:26;;;;;;;11.50;4.50;;;;;;;13.88;63.51;99478.31;104669;1273;75375;-24
2022/09/02 06:25:53;;;;;;;11.30;3.80;;;;;;;13.85;62.36;99480.16;104588;1273;76154;-24
2022/09/02 06:28:21;;;;;;;17.50;3.80;;;;;;;13.81;62.80;99483.95;104571;1273;75210;-24
2022/09/02 06:30:48;;;;;;;9.30;3.60;;;;;;;13.84;62.06;99482.86;104589;1273;61709;-24
2022/09/02 06:33:19;;;;;;;12.40;6.10;;;;;;;13.79;62.31;99484.33;104973;1273;61865;-23
2022/09/02 06:35:46;;;;;;;32.80;11.80;;;;;;;13.91;62.90;99487.58;104742;1272;75312;-25
2022/09/02 06:38:15;;;;;;;16.40;7.40;;;;;;;13.86;61.92;99486.96;104979;1273;77310;-23
2022/09/02 06:40:48;;;;;;;22.10;9.70;;;;;;;13.92;62.42;99488.54;104675;1273;73359;-23
2022/09/02 06:43:16;;;;;;;19.60;7.70;;;;;;;14.15;61.95;99485.33;104440;1273;61385;-23
2022/09/02 06:45:54;;;;;;;30.70;8.60;;;;;;;14.29;61.43;99486.84;104674;1273;61945;-26
2022/09/02 06:48:22;;;;;;;5.30;3.40;;;;;;;14.51;60.21;99488.37;104623;1273;77026;-23
2022/09/02 06:50:49;;;;;;;10.20;3.40;;;;;;;14.75;58.48;99486.10;104609;1273;76989;-24
2022/09/02 06:53:18;;;;;;;7.00;2.70;;;;;;;14.92;60.05;99488.33;104636;1272;75424;-24
2022/09/02 06:55:45;;;;;;;12.90;3.20;;;;;;;15.07;59.44;99484.39;104676;1271;62627;-24
2022/09/02 06:58:13;;;;;;;4.60;2.70;;;;;;;15.22;59.20;99484.15;104784;1273;61948;-24
2022/09/02 07:00:41;;;;;;;7.90;2.50;;;;;;;15.35;56.97;99485.26;104752;1273;75729;-24
2022/09/02 07:06:09;;;;;;;6.90;2.80;;;;;;;15.26;56.33;99488.89;104687;1273;74806;-24
2022/09/02 07:08:41;;;;;;;4.90;2.40;;;;;;;15.27;54.79;99487.92;104627;1274;61735;-23
2022/09/02 07:11:18;;;;;;;8.00;2.90;;;;;;;15.11;54.12;99485.52;104473;1273;61603;-23
2022/09/02 07:13:46;;;;;;;5.00;3.60;;;;;;;15.02;54.72;99488.34;104657;1273;75571;-24
2022/09/02 07:16:14;;;;;;;6.80;3.00;;;;;;;15.01;54.37;99488.59;104653;1273;76111;-24
2022/09/02 07:18:53;;;;;;;11.40;4.90;;;;;;;15.21;54.28;99485.64;104600;1273;75402;-24
2022/09/02 07:21:21;;;;;;;65.10;5.30;;;;;;;15.52;52.97;99488.67;104439;1273;61750;-24
2022/09/02 07:23:48;;;;;;;4.00;2.10;;;;;;;15.69;52.84;99486.97;104679;1273;61700;-24
2022/09/02 07:26:17;;;;;;;6.10;2.20;;;;;;;15.74;53.14;99486.06;104805;1273;74905;-24
2022/09/02 07:28:45;;;;;;;12.80;5.70;;;;;;;15.67;52.30;99488.23;104669;1273;77134;-23
2022/09/02 07:31:14;;;;;;;10.80;4.40;;;;;;;15.57;51.72;99489.33;104627;1273;73780;-23
2022/09/02 07:33:43;;;;;;;5.40;2.10;;;;;;;15.94;51.19;99487.40;104443;1273;62055;-23
2022/09/02 07:36:15;;;;;;;16.60;14.80;;;;;;;16.13;50.05;99490.67;104617;1273;61845;-24
2022/09/02 07:38:43;;;;;;;19.50;9.00;;;;;;;16.19;49.00;99490.59;104772;1273;76665;-24
2022/09/02 07:41:11;;;;;;;3.50;1.80;;;;;;;16.05;49.86;99487.17;104626;1273;75976;-24
2022/09/02 07:43:40;;;;;;;2.90;1.70;;;;;;;15.95;50.63;99489.18;104654;1273;75088;-24
2022/09/02 07:46:07;;;;;;;2.90;1.60;;;;;;;16.36;50.00;99488.44;104686;1273;62993;-24
2022/09/02 07:48:35;;;;;;;2.00;1.20;;;;;;;16.62;49.12;99488.44;104681;1273;63448;-22
2022/09/02 07:51:02;;;;;;;2.70;1.10;;;;;;;16.88;48.92;99489.02;104674;1273;76779;-22
2022/09/02 07:53:31;;;;;;;5.90;1.40;;;;;;;16.91;47.59;99489.45;104669;1273;76966;-24
2022/09/02 07:55:58;;;;;;;3.20;1.40;;;;;;;17.04;47.77;99489.21;104727;1273;74408;-24
2022/09/02 07:58:27;;;;;;;1.50;0.90;;;;;;;17.16;46.53;99487.17;104759;1273;61669;-25
2022/09/02 08:00:59;;;;;;;1.50;0.90;;;;;;;17.34;45.69;99489.25;104816;1272;61793;-24
2022/09/02 08:03:27;;;;;;;96.10;7.10;;;;;;;17.54;45.66;99482.71;104779;1273;75707;-24
2022/09/02 08:05:56;;;;;;;4.30;0.90;;;;;;;17.75;45.37;99486.02;104680;1273;76224;-24
2022/09/02 08:08:25;;;;;;;3.10;0.80;;;;;;;17.89;44.53;99483.16;104642;1273;75139;-24
2022/09/02 08:10:53;;;;;;;7.30;1.00;;;;;;;17.74;42.81;99484.31;104588;1273;63048;-24
2022/09/02 08:13:20;;;;;;;2.40;0.70;;;;;;;17.64;42.14;99484.35;104739;1273;62975;-24
2022/09/02 08:15:53;;;;;;;1.40;0.80;;;;;;;18.06;42.27;99480.02;104603;1274;76317;-24
2022/09/02 08:18:20;;;;;;;1.50;0.80;;;;;;;18.16;42.03;99480.04;104703;1273;75130;-25
2022/09/02 08:20:48;;;;;;;0.80;0.50;;;;;;;18.58;41.52;99472.16;104648;1272;75391;-24
2022/09/02 08:23:15;;;;;;;1.10;0.80;;;;;;;19.04;41.34;99471.95;104784;1273;62871;-24
2022/09/02 08:26:03;;;;;;;1.10;0.50;;;;;;;19.51;39.17;99469.94;104954;1273;62818;-24
2022/09/02 08:28:33;;;;;;;37.10;16.40;;;;;;;19.37;37.06;99472.46;104771;1273;74347;-24
2022/09/02 08:31:05;;;;;;;3.20;1.50;;;;;;;18.58;36.96;99468.30;104655;1273;75986;-22
2022/09/02 08:33:33;;;;;;;3.70;1.90;;;;;;;19.15;37.28;99470.95;104413;1273;74955;-23
2022/09/02 08:36:03;;;;;;;8.40;2.60;;;;;;;18.59;34.54;99461.97;104612;1273;61977;-23
2022/09/02 08:38:30;;;;;;;21.00;8.70;;;;;;;18.44;36.52;99464.00;104655;1273;62803;-25
2022/09/02 08:40:57;;;;;;;12.40;5.50;;;;;;;18.93;38.23;99464.11;104815;1273;76590;-23
2022/09/02 08:43:38;;;;;;;4.80;1.60;;;;;;;19.20;35.90;99470.91;104588;1273;74965;-24
2022/09/02 08:46:08;;;;;;;47.70;3.00;;;;;;;19.45;37.80;99469.48;104600;1273;75668;-23
2022/09/02 08:48:35;;;;;;;4.30;0.50;;;;;;;19.46;35.57;99465.03;104401;1273;61191;-23
2022/09/02 08:51:06;;;;;;;3.50;0.90;;;;;;;19.21;37.04;99465.63;104620;1273;62011;-23
2022/09/02 08:53:38;;;;;;;1.00;0.50;;;;;;;19.02;37.10;99465.85;104338;1273;76684;-23
2022/09/02 08:56:05;;;;;;;30.10;2.00;;;;;;;18.92;36.84;99462.80;104672;1273;75544;-23
2022/09/02 08:58:38;;;;;;;4.00;2.40;;;;;;;18.83;37.10;99463.48;104568;1273;74158;-23
2022/09/02 09:01:09;;;;;;;20.50;16.00;;;;;;;18.89;37.10;99462.03;103500;1273;1511234;-23
2022/09/02 09:03:45;;;;;;;10.40;4.60;;;;;;;18.90;37.29;99460.05;104874;1273;61798;-23
2022/09/02 09:06:19;;;;;;;18.40;6.00;;;;;;;18.76;36.71;99460.39;104660;1273;76288;-23
2022/09/02 09:09:00;;;;;;;11.00;3.70;;;;;;;18.48;36.63;99463.49;104751;1273;77031;-23
2022/09/02 09:11:37;;;;;;;13.70;6.50;;;;;;;17.77;37.16;99460.65;104739;1273;74089;-24
2022/09/02 09:14:07;;;;;;;1.80;1.10;;;;;;;18.72;36.78;99464.45;104712;1273;61169;-24
2022/09/02 09:16:36;;;;;;;1.40;1.00;;;;;;;19.35;34.63;99464.35;104632;1273;61897;-23
2022/09/02 09:19:32;;;;;;;9.40;3.60;;;;;;;19.21;35.35;99459.95;104565;1273;76749;-24
2022/09/02 09:22:02;;;;;;;3.40;1.60;;;;;;;18.30;37.23;99464.24;104866;1273;77368;-24
2022/09/02 09:24:35;;;;;;;7.70;1.20;;;;;;;19.36;37.41;99464.59;104614;1273;74501;-24
2022/09/02 09:27:13;;;;;;;1.80;1.10;;;;;;;18.99;35.98;99458.56;104653;1273;63055;-23
2022/09/02 09:29:40;;;;;;;5.80;1.50;;;;;;;19.38;36.52;99460.75;104588;1273;63106;-25
2022/09/02 09:32:20;;;;;;;3.10;1.70;;;;;;;18.13;37.08;99464.59;104639;1273;76351;-22
2022/09/02 09:34:51;;;;;;;8.40;3.00;;;;;;;19.21;36.47;99467.79;104617;1273;77355;-24
2022/09/02 09:37:28;;;;;;;8.90;3.30;;;;;;;19.93;35.49;99463.23;104642;1273;75380;-25
2022/09/02 09:40:19;;;;;;;1.20;0.80;;;;;;;19.96;34.37;99461.02;104625;1273;62003;-24
2022/09/02 09:42:49;;;;;;;3.50;1.20;;;;;;;19.77;33.44;99462.11;104620;1273;62916;-25
2022/09/02 09:45:30;;;;;;;4.00;2.00;;;;;;;20.41;34.09;99459.06;104625;1273;74768;-24
2022/09/02 09:48:18;;;;;;;2.20;1.10;;;;;;;20.95;32.74;99452.06;104377;1273;76999;-23
2022/09/02 09:50:46;;;;;;;12.30;6.70;;;;;;;21.45;31.27;99448.61;104632;1273;75483;-23
2022/09/02 09:53:24;;;;;;;1.80;1.10;;;;;;;20.84;31.70;99448.49;104490;1273;61137;-23
2022/09/02 09:56:17;;;;;;;13.90;3.10;;;;;;;20.30;32.01;99450.09;104668;1273;61861;-23
2022/09/02 09:58:45;;;;;;;;;;;;;;;21.68;31.98;99446.41;104664;1273;76794;-24
2022/09/02 10:01:15;;;;;;;3.30;2.30;;;;;;;22.37;30.20;99443.20;104655;1273;75987;-23
2022/09/02 10:03:48;;;;;;;4.30;2.30;;;;;;;23.05;29.13;99444.66;104630;1273;75204;-23
2022/09/02 10:06:17;;;;;;;7.30;3.00;;;;;;;23.49;28.19;99442.77;104421;1273;63025;-23
2022/09/02 10:08:56;;;;;;;4.70;1.70;;;;;;;23.41;28.44;99440.98;104687;1273;62806;-24
2022/09/02 10:11:27;;;;;;;1.20;0.80;;;;;;;22.96;28.66;99443.52;104632;1273;76804;-24
2022/09/02 10:14:01;;;;;;;1.10;0.90;;;;;;;22.17;29.35;99447.21;104674;1273;77030;-24
2022/09/02 10:16:32;;;;;;;1.00;0.70;;;;;;;21.17;29.91;99446.93;104642;1273;74356;-24
2022/09/02 10:18:59;;;;;;;1.40;0.90;;;;;;;20.75;31.10;99448.70;104687;1273;61790;-32
2022/09/02 10:22:01;;;;;;;2.10;0.70;;;;;;;22.05;29.89;99440.73;104744;1273;61819;-34
2022/09/02 10:26:49;;;;;;;1.40;0.80;;;;;;;22.26;28.80;99439.71;101671;1310;601086;-26
2022/09/02 10:29:38;;;;;;;9.10;3.30;;;;;;;22.01;28.02;99436.71;103970;1284;62809;-25
2022/09/02 10:32:11;;;;;;;2.70;0.90;;;;;;;22.71;28.14;99437.98;104196;1286;62932;-24
2022/09/02 10:34:41;;;;;;;;;;;;;;;23.01;28.46;99435.33;104273;1284;74996;-24
2022/09/02 10:37:25;;;;;;;2.50;0.90;;;;;;;23.20;28.25;99436.93;103928;1284;76764;-24
2022/09/02 10:39:59;;;;;;;1.50;0.60;;;;;;;23.34;28.49;99446.77;102352;1281;2316851;-23
2022/09/02 10:42:37;;;;;;;2.80;0.90;;;;;;;23.33;27.81;99449.77;104570;1278;63049;-23
2022/09/02 10:45:46;;;;;;;1.50;0.60;;;;;;;22.87;26.94;99445.40;104421;1280;62210;-23
2022/09/02 10:48:33;;;;;;;1.80;0.90;;;;;;;22.71;28.23;99446.16;103903;1286;75005;-23
2022/09/02 10:51:38;;;;;;;2.70;1.40;;;;;;;21.62;28.15;99451.45;104544;1277;76755;-24
2022/09/02 10:54:41;;;;;;;3.20;1.40;;;;;;;22.50;27.84;99450.64;104586;1277;74533;-23
2022/09/02 10:57:20;;;;;;;1.10;0.80;;;;;;;22.93;28.08;99447.34;104490;1277;63374;-23
2022/09/02 10:59:56;;;;;;;1.90;0.80;;;;;;;23.02;27.05;99448.36;104499;1277;62580;-23
2022/09/02 11:02:24;;;;;;;3.20;0.60;;;;;;;23.10;26.93;99449.14;104585;1277;75869;-23
2022/09/02 11:04:59;;;;;;;1.10;0.60;;;;;;;23.57;28.40;99448.31;104671;1277;77024;-23
2022/09/02 11:07:29;;;;;;;1.80;0.80;;;;;;;24.31;26.89;99448.00;104535;1277;74049;-23
2022/09/02 11:09:59;;;;;;;0.80;0.50;;;;;;;24.85;27.16;99443.73;104391;1276;61548;-23
2022/09/02 11:12:30;;;;;;;1.50;0.80;;;;;;;25.03;26.62;99444.44;104431;1277;63410;-22
2022/09/02 11:15:35;;;;;;;28.90;25.90;;;;;;;24.99;25.85;99444.05;104592;1277;75845;-23
2022/09/02 11:18:16;;;;;;;11.10;4.60;;;;;;;24.36;26.09;99449.06;104690;1277;75298;-23
2022/09/02 11:20:49;;;;;;;2.40;1.10;;;;;;;22.32;27.66;99451.63;105104;1271;74331;-23
2022/09/02 11:23:40;;;;;;;4.50;0.70;;;;;;;20.64;29.40;99452.74;105019;1269;63001;-23
2022/09/02 11:26:24;;;;;;;8.10;2.50;;;;;;;22.25;30.23;99452.46;104935;1271;63051;-23
2022/09/02 11:28:56;;;;;;;11.70;4.90;;;;;;;22.10;28.00;99453.27;104759;1271;74763;-24
2022/09/02 11:31:28;;;;;;;5.70;1.50;;;;;;;22.50;29.00;99451.89;104759;1271;76983;-24
2022/09/02 11:33:59;;;;;;;1.90;0.70;;;;;;;22.61;28.94;99451.54;104752;1271;75123;-24
2022/09/02 11:36:36;;;;;;;2.70;1.10;;;;;;;22.01;27.98;99452.10;104984;1271;62081;-24
2022/09/02 11:39:40;;;;;;;2.20;0.90;;;;;;;20.70;29.27;99449.14;104662;1274;62947;-24
2022/09/02 11:42:30;;;;;;;1.60;0.60;;;;;;;21.44;29.62;99446.56;104650;1274;75202;-25
2022/09/02 11:45:16;;;;;;;3.60;0.70;;;;;;;21.92;31.16;99451.61;104855;1271;76253;-24
2022/09/02 11:47:53;;;;;;;0.90;0.50;;;;;;;22.36;29.39;99450.39;104764;1274;75448;-25
2022/09/02 11:50:42;;;;;;;0.70;0.60;;;;;;;22.52;28.76;99445.99;104910;1271;63369;-25